Tiempo atmosférico en la estación meteorológica de Lorca, Zarcilla de Ramos, Murcia (674 m.)



Fecha
DESCASC
Temp. máxima en grados centígrados (hora)
DESCASC
Temp. mínima en grados centígrados (hora)
DESCASC
Temp. media en grados centígrados
DESCASC
Racha de viento máxima en m/sg (hora)
DESCASC
Velocidad máxima media en intervalos de 10 minutos(hora)
DESCASC
Precipitaciones diarias en mm
DESCASC
Precipitaciones de 00:00 a 06:00 en mm
DESCASC
Precipitaciones de 06:00 a 12:00 en mm
DESCASC
Precipitaciones de 12:00 a 18:00 en mm
DESCASC
Precipitaciones de 18:00 a 24:00 en mm
DESCASC
27-01-2020 14.2 (14:50) 1 (06:40) 7.6 9.72 (23:50) 6.39 (23:59) 0 0 0 0 0
26-01-2020 13.9 (16:00) 4.2 (08:40) 9 8.61 (12:20) 5.28 (12:30) 0.2 0.2 0 0 0
25-01-2020 10.1 (15:40) 4.6 (00:00) 7.4 5 (16:10) 3.61 (16:10) 1 0 0 1 0
24-01-2020 11.6 (13:30) 3.5 (00:00) 7.6 6.11 (03:20) 3.89 (03:20) 0 0 0 0 0
23-01-2020 13 (14:40) 3.7 (00:00) 8.4 5.83 (15:40) 4.17 (15:40) 0.2 0.2 0 0 0
22-01-2020 8.6 (12:30) 3 (00:00) 5.8 8.33 (14:40) 5.28 (14:40) 2 0 0 2 0
21-01-2020 6.5 (16:30) 2.3 (00:00) 4.4 14.72 (06:40) 10 (04:20) 28.6 7.8 16.4 0.8 3.6
20-01-2020 3.5 (23:50) 0.1 (00:00) 1.8 21.39 (03:40) 14.72 (06:20) 12.4 5.6 4.4 0 2.4
19-01-2020 11 (00:00) 1.1 (00:00) 6.1 17.78 (15:20) 11.94 (18:30) 10 0 0 0 10
18-01-2020 12.7 (17:10) 3.8 (00:00) 8.2 11.94 (17:20) 7.78 (16:30) 1 0 0.8 0.2 0
17-01-2020 17.2 (15:50) 2.4 (00:00) 9.8 8.61 (13:50) 5.28 (13:50) 0 0 0 0 0
16-01-2020 17.2 (14:50) 0.6 (00:00) 8.9 5.28 (16:10) 3.61 (16:30) 0 0 0 0 0
15-01-2020 16.2 (15:50) 1.6 (00:00) 8.9 6.39 (00:40) 4.44 (08:40) 0 0 0 0 0
14-01-2020 15 (15:40) 0.8 (00:00) 7.9 9.44 (02:20) 6.11 (03:00) 0 0 0 0 0
13-01-2020 14.5 (14:20) -2.5 (-00:0) 6 5.56 (23:20) 3.33 (23:40) 0 0 0 0 0
12-01-2020 14.9 (15:30) 0.4 (00:00) 7.6 8.61 (03:20) 4.72 (01:10) 0 0 0 0 0
11-01-2020 12.3 (14:30) 1.6 (00:00) 7 8.61 (03:50) 6.11 (03:40) 0 0 0 0 0
10-01-2020 12.7 (13:40) 3.8 (00:00) 8.2 11.67 (15:00) 8.06 (15:10) 0 0 0 0 0
09-01-2020 14.1 (14:50) 0.9 (00:00) 7.5 4.72 (23:20) 3.61 (23:20) 0 0 0 0 0
08-01-2020 17.3 (12:50) 1.5 (00:00) 9.4 6.67 (13:40) 5 (05:30) 0 0 0 0 0
07-01-2020 17.3 (15:40) 1.2 (00:00) 9.2 6.11 (03:20) 4.44 (03:20) 0 0 0 0 0
06-01-2020 16.3 (14:50) -1.1 (-00:0) 7.6 5 (22:00) 3.33 (21:40) 0 0 0 0 0
05-01-2020 15.6 (16:00) -0.4 (00:00) 7.6 3.89 (00:10) 3.33 (00:10) 0 0 0 0 0
04-01-2020 11.3 (13:20) 0 (00:00) 5.7 6.39 (01:50) 4.72 (01:50) 0 0 0 0 0
03-01-2020 18.9 (15:10) 1.1 (00:00) 10 4.72 (23:59) 3.61 (21:10) 0.2 0.2 0 0 0
02-01-2020 7.8 (15:50) -1.9 (-00:0) 3 3.06 (12:40) 2.22 (19:00) 0 0 0 0 0
01-01-2020 16.7 (15:20) 0.3 (00:00) 8.5 4.72 (15:10) 1.94 (15:20) 0 0 0 0 0
31-12-2019 12.9 (14:40) -0.2 (00:00) 6.3 5 (14:50) 3.33 (16:40) 0 0 0 0 0
30-12-2019 -- (--) -- (--) -- -- (--) -- (--) -- 0 0 -- 0
29-12-2019 13.8 (15:50) 1.5 (00:00) 7.7 6.67 (01:20) 4.17 (01:20) 0 0 0 0 0

Gráficas

Temp. máximas Temp. mínimas Temp. medias Precipitaciones Rachas de viento máximas Velocidades máximas media en intervalos de 10 minutos

Datos horarios

Fecha y hora oficial Temperatura (ºC) Velocidad del viento (km/h) Dirección del viento Racha (km/h) Dirección de racha Precipitación (mm) Presión (hPa) Tendencia (hPa) Humedad (%)
2020-01-27 23:00:00 9.4 10 Oeste 24 Sudoeste 0 -- -- 59
2020-01-27 22:00:00 9.9 17 Sudoeste 33 Sudoeste 0 -- -- 58
2020-01-27 21:00:00 9.2 7 Oeste 25 Sudoeste 0 -- -- 60
2020-01-27 20:00:00 9.5 8 Oeste 24 Oeste 0 -- -- 60
2020-01-27 19:00:00 9.5 9 Sudoeste 15 Sudoeste 0 -- -- 66
2020-01-27 18:00:00 11.8 7 Sudoeste 22 Oeste 0 -- -- 58
2020-01-27 17:00:00 13.3 16 Sudoeste 24 Sudoeste 0 -- -- 51
2020-01-27 16:00:00 13.9 15 Sudoeste 24 Sudoeste 0 -- -- 51
2020-01-27 15:00:00 14.1 14 Oeste 21 Oeste 0 -- -- 44
2020-01-27 14:00:00 13.5 4 Este 15 Sur 0 -- -- 53
2020-01-27 13:00:00 12.4 8 Sudoeste 16 Sudoeste 0 -- -- 50
2020-01-27 12:00:00 10.3 11 Sudoeste 17 Sudoeste 0 -- -- 60
2020-01-27 11:00:00 8.5 4 Norte 23 Norte 0 -- -- 67
2020-01-27 10:00:00 5.8 12 Norte 19 Norte 0 -- -- 80
2020-01-27 09:00:00 2.6 2 Sur 20 Noroeste 0 -- -- 87
2020-01-27 08:00:00 2.7 13 Noroeste 18 Noroeste 0 -- -- 86
2020-01-27 07:00:00 1.6 2 Norte 7 Oeste 0 -- -- 89
2020-01-27 06:00:00 1.4 0 Calma 6 Noroeste 0 -- -- 88
2020-01-27 05:00:00 2.3 0 Calma 6 Este 0 -- -- 85
2020-01-27 04:00:00 4.2 3 Sudeste 18 Norte 0 -- -- 81
2020-01-27 03:00:00 3.6 3 Noroeste 12 Norte 0 -- -- 81
2020-01-27 02:00:00 4.4 10 Norte 19 Noroeste 0 -- -- 80
2020-01-27 01:00:00 5.3 14 Norte 24 Noroeste 0 -- -- 75
2020-01-27 00:00:00 5.3 13 Noroeste 23 Norte 0 -- -- 74
2020-01-26 23:00:00 5.7 13 Norte 19 Noroeste 0 -- -- 73
2020-01-26 22:00:00 5.7 2 Este 23 Oeste 0 -- -- 72
2020-01-26 21:00:00 7.3 13 Oeste 24 Noroeste 0 -- -- 65
2020-01-26 20:00:00 7.3 9 Norte 20 Oeste 0 -- -- 68
2020-01-26 19:00:00 8.9 13 Oeste 17 Noroeste 0 -- -- 63
2020-01-26 18:00:00 10.7 9 Noroeste 20 Norte 0 -- -- 60
2020-01-26 17:00:00 12.5 11 Norte 22 Norte 0 -- -- 57
2020-01-26 16:00:00 13.9 11 Sudoeste 19 Sudoeste 0 -- -- 50
2020-01-26 15:00:00 11.9 11 Oeste 23 Oeste 0 -- -- 55
2020-01-26 14:00:00 12.2 13 Oeste 28 Oeste 0 -- -- 55
2020-01-26 13:00:00 12.6 17 Oeste 31 Oeste 0 -- -- 59
2020-01-26 12:00:00 11.4 15 Oeste 27 Oeste 0 -- -- 67
2020-01-26 11:00:00 10.1 3 Nordeste 17 Oeste 0 -- -- 71
2020-01-26 10:00:00 8.2 12 Oeste 25 Oeste 0 -- -- 78
2020-01-26 09:00:00 5.7 15 Oeste 22 Oeste 0 -- -- 88
2020-01-26 08:00:00 6 6 Oeste 18 Oeste 0 -- -- 86
2020-01-26 07:00:00 5.3 6 Oeste 10 Oeste 0 -- -- 91
2020-01-26 06:00:00 6 3 Noroeste 15 Sudoeste 0 -- -- 86
2020-01-26 05:00:00 6.7 8 Oeste 21 Sudoeste 0 -- -- 86
2020-01-26 04:00:00 6.8 11 Sudoeste 18 Oeste 0 -- -- 86
2020-01-26 03:00:00 7.1 14 Oeste 28 Oeste 0 -- -- 85
2020-01-26 02:00:00 5.5 8 Noroeste 13 Norte 0 -- -- 96
2020-01-26 01:00:00 4.3 2 Norte 11 Noroeste 0.2 -- -- 96
2020-01-26 00:00:00 4.6 4 Noroeste 8 Noroeste 0 -- -- 96
2020-01-25 23:00:00 5.4 6 Noroeste 9 Noroeste 0 -- -- 97
2020-01-25 22:00:00 5.2 3 Norte 6 Noroeste 0 -- -- 96
2020-01-25 21:00:00 6.2 0 Calma 4 Noroeste 0 -- -- 95
2020-01-25 20:00:00 6.4 0 Calma 3 Nordeste 0 -- -- 94
2020-01-25 19:00:00 7.5 0 Calma 5 Sudeste 0 -- -- 92
2020-01-25 18:00:00 8.5 5 Sudeste 6 Sudeste 0 -- -- 90
2020-01-25 17:00:00 8.9 8 Sudeste 18 Sudeste 0.6 -- -- 90
2020-01-25 16:00:00 10 10 Sur 17 Sur 0 -- -- 87
2020-01-25 15:00:00 9.5 3 Norte 7 Sur 0 -- -- 86
2020-01-25 14:00:00 9.5 3 Sudeste 8 Sur 0.2 -- -- 87
2020-01-25 13:00:00 8.9 2 Sur 13 Sudeste 0.2 -- -- 89
2020-01-25 12:00:00 9.1 4 Noroeste 10 Norte 0 -- -- 84
2020-01-25 11:00:00 8 3 Oeste 14 Norte 0 -- -- 90
2020-01-25 10:00:00 6.8 9 Noroeste 14 Noroeste 0 -- -- 94
2020-01-25 09:00:00 6.9 4 Norte 5 Norte 0 -- -- 95
2020-01-25 08:00:00 6.7 5 Noroeste 6 Noroeste 0 -- -- 96
2020-01-25 07:00:00 6.5 5 Noroeste 9 Noroeste 0 -- -- 96
2020-01-25 06:00:00 6.3 3 Nordeste 5 Este 0 -- -- 96
2020-01-25 05:00:00 6.7 0 Calma 6 Norte 0 -- -- 96
2020-01-25 04:00:00 6.7 4 Nordeste 9 Este 0 -- -- 96
2020-01-25 03:00:00 7.1 3 Norte 5 Norte 0 -- -- 96
2020-01-25 02:00:00 7.4 4 Este 5 Este 0 -- -- 95
2020-01-25 01:00:00 7.9 3 Sudoeste 5 Sudoeste 0 -- -- 95
2020-01-25 00:00:00 8 0 Calma 11 Este 0 -- -- 94
2020-01-24 23:00:00 8.2 0 Calma 9 Sudeste 0 -- -- 94
2020-01-24 22:00:00 8.1 3 Este 8 Sudeste 0 -- -- 93
2020-01-24 21:00:00 8.4 3 Sudeste 8 Sudeste 0 -- -- 92
2020-01-24 20:00:00 8.5 2 Este 6 Este 0 -- -- 91
2020-01-24 19:00:00 8.7 5 Este 10 Este 0 -- -- 91
2020-01-24 18:00:00 9.4 6 Sudeste 13 Sudeste 0 -- -- 88
2020-01-24 17:00:00 10.1 7 Este 10 Este 0 -- -- 85
2020-01-24 16:00:00 10.7 3 Sur 9 Sur 0 -- -- 80
2020-01-24 15:00:00 11.2 3 Sur 9 Sudeste 0 -- -- 78
2020-01-24 14:00:00 11.1 5 Sudeste 10 Sur 0 -- -- 77
2020-01-24 13:00:00 9.9 2 Sudoeste 7 Sur 0 -- -- 80
2020-01-24 12:00:00 9.3 2 Este 5 Sur 0 -- -- 85
2020-01-24 11:00:00 7.6 4 Sur 9 Norte 0 -- -- 90
2020-01-24 10:00:00 6.6 6 Norte 8 Norte 0 -- -- 93
2020-01-24 09:00:00 6 2 Oeste 13 Norte 0 -- -- 93
2020-01-24 08:00:00 5.8 4 Norte 10 Noroeste 0 -- -- 92
2020-01-24 07:00:00 5.7 4 Noroeste 13 Noroeste 0 -- -- 92
2020-01-24 06:00:00 5.5 9 Noroeste 16 Noroeste 0 -- -- 91
2020-01-24 05:00:00 4.9 9 Noroeste 15 Noroeste 0 -- -- 93
2020-01-24 04:00:00 4.8 9 Noroeste 22 Norte 0 -- -- 94
2020-01-24 03:00:00 4.1 9 Norte 12 Norte 0 -- -- 96
2020-01-24 02:00:00 3.9 9 Norte 12 Norte 0 -- -- 96
2020-01-24 01:00:00 3.9 3 Noroeste 11 Noroeste 0 -- -- 96
2020-01-24 00:00:00 4.3 6 Noroeste 9 Noroeste 0 -- -- 95
2020-01-23 23:00:00 5.1 5 Noroeste 8 Noroeste 0 -- -- 96
2020-01-23 22:00:00 6.3 5 Norte 6 Este 0 -- -- 93
2020-01-23 21:00:00 7.3 2 Norte 8 Este 0 -- -- 94
2020-01-23 20:00:00 7.9 3 Sudeste 10 Sur 0 -- -- 90
2020-01-23 19:00:00 7.9 0 Calma 9 Sudeste 0 -- -- 86
2020-01-23 18:00:00 9.3 6 Sudeste 14 Sudeste 0 -- -- 80
2020-01-23 17:00:00 10.5 7 Sudeste 17 Sudeste 0 -- -- 75
2020-01-23 16:00:00 12.2 13 Sudeste 21 Sudeste 0 -- -- 69
2020-01-23 15:00:00 12.3 10 Sudeste 17 Sudeste 0 -- -- 71
2020-01-23 14:00:00 12 10 Sudeste 15 Sudeste 0 -- -- 75
2020-01-23 13:00:00 9.6 5 Sudoeste 11 Sudoeste 0 -- -- 81
2020-01-23 12:00:00 8.8 5 Sudoeste 10 Sur 0 -- -- 89
2020-01-23 11:00:00 8.2 7 Sur 11 Sudeste 0 -- -- 96
2020-01-23 10:00:00 6.7 3 Este 6 Norte 0 -- -- 98
2020-01-23 09:00:00 5.6 5 Norte 7 Nordeste 0 -- -- 97
2020-01-23 08:00:00 4.9 2 Norte 5 Sudoeste 0 -- -- 96
2020-01-23 07:00:00 5 3 Oeste 6 Noroeste 0 -- -- 96
2020-01-23 06:00:00 4.9 0 Calma 11 Norte 0 -- -- 96
2020-01-23 05:00:00 5 7 Norte 11 Noroeste 0 -- -- 95
2020-01-23 04:00:00 4.1 5 Noroeste 9 Noroeste 0 -- -- 96
2020-01-23 03:00:00 4.1 3 Norte 12 Noroeste 0 -- -- 95
2020-01-23 02:00:00 4.1 8 Noroeste 10 Noroeste 0 -- -- 95
2020-01-23 01:00:00 4.3 4 Oeste 11 Noroeste 0.2 -- -- 94
2020-01-23 00:00:00 4.2 2 Oeste 9 Noroeste 0 -- -- 95
2020-01-22 23:00:00 3.1 3 Norte 6 Noroeste 0 -- -- 94
2020-01-22 22:00:00 3.3 0 Calma 4 Sur 0 -- -- 95
2020-01-22 21:00:00 3.6 3 Sudoeste 10 Norte 0 -- -- 92
2020-01-22 20:00:00 4.1 0 Calma 8 Oeste 0 -- -- 91
2020-01-22 19:00:00 5.5 8 Noroeste 12 Oeste 0 -- -- 88
2020-01-22 18:00:00 6.8 8 Noroeste 18 Noroeste 0 -- -- 85
2020-01-22 17:00:00 8.2 13 Norte 20 Norte 0 -- -- 84
2020-01-22 16:00:00 7.2 14 Norte 22 Noroeste 0.6 -- -- 90
2020-01-22 15:00:00 5.9 11 Sudoeste 30 Sur 1.4 -- -- 94
2020-01-22 14:00:00 8.2 9 Noroeste 15 Noroeste 0 -- -- 81
2020-01-22 13:00:00 8.2 11 Noroeste 19 Noroeste 0 -- -- 80
2020-01-22 12:00:00 8.1 7 Norte 19 Norte 0 -- -- 83
2020-01-22 11:00:00 7.5 4 Nordeste 18 Norte 0 -- -- 89
2020-01-22 10:00:00 7.1 13 Norte 17 Norte 0 -- -- 90
2020-01-22 09:00:00 5.2 10 Noroeste 16 Noroeste 0 -- -- 93
2020-01-22 08:00:00 4.2 8 Noroeste 14 Noroeste 0 -- -- 94
2020-01-22 07:00:00 4.8 9 Norte 12 Norte 0 -- -- 96
2020-01-22 06:00:00 5.5 0 Calma 6 Noroeste 0 -- -- 96
2020-01-22 05:00:00 5.5 0 Calma 4 Sudoeste 0 -- -- 96
2020-01-22 04:00:00 5.4 3 Nordeste 8 Este 0 -- -- 96
2020-01-22 03:00:00 4.7 0 Calma 4 Este 0 -- -- 95
2020-01-22 02:00:00 4.6 0 Calma 6 Oeste 0 -- -- 94
2020-01-22 01:00:00 4.7 5 Noroeste 12 Noroeste 0 -- -- 92
2020-01-22 00:00:00 5 8 Noroeste 11 Noroeste 0 -- -- 93
2020-01-21 23:00:00 4.9 6 Norte 12 Norte 0.2 -- -- 95
2020-01-21 22:00:00 5 8 Noroeste 12 Noroeste 0 -- -- 95
2020-01-21 21:00:00 5 8 Noroeste 11 Noroeste 1.2 -- -- 95
2020-01-21 20:00:00 5.1 4 Norte 10 Norte 2.2 -- -- 94
2020-01-21 19:00:00 5.4 7 Norte 22 Norte 0 -- -- 91
2020-01-21 18:00:00 5.6 15 Norte 22 Norte 0 -- -- 90
2020-01-21 17:00:00 6.2 15 Norte 23 Norte 0 -- -- 90
2020-01-21 16:00:00 6.3 7 Norte 23 Noroeste 0 -- -- 98
2020-01-21 15:00:00 5.8 13 Norte 22 Noroeste 0 -- -- 98
2020-01-21 14:00:00 4.6 15 Noroeste 24 Noroeste 0 -- -- 98
2020-01-21 13:00:00 3.7 14 Noroeste 33 Noroeste 0.8 -- -- 98
2020-01-21 12:00:00 2.8 11 Norte 22 Norte 5 -- -- 98
2020-01-21 11:00:00 3 14 Norte 28 Noroeste 3.4 -- -- 98
2020-01-21 10:00:00 2.6 11 Norte 31 Noroeste 2.6 -- -- 97
2020-01-21 09:00:00 3 21 Norte 36 Norte 0.4 -- -- 97
2020-01-21 08:00:00 2.5 18 Norte 30 Norte 0.6 -- -- 97
2020-01-21 07:00:00 2.3 24 Norte 53 Norte 4.4 -- -- 96
2020-01-21 06:00:00 3.4 30 Norte 50 Norte 2.2 -- -- 93
2020-01-21 05:00:00 3.2 31 Norte 52 Norte 1.4 -- -- 93
2020-01-21 04:00:00 3.2 27 Norte 39 Norte 2.4 -- -- 95
2020-01-21 03:00:00 3.8 23 Norte 42 Norte 1 -- -- 93
2020-01-21 02:00:00 3.8 25 Norte 37 Norte 0.4 -- -- 93
2020-01-21 01:00:00 3.7 21 Norte 37 Noroeste 0.4 -- -- 94
2020-01-21 00:00:00 3.5 15 Norte 30 Noroeste 0.2 -- -- 93
2020-01-20 23:00:00 3.3 23 Noroeste 35 Noroeste 0 -- -- 91
2020-01-20 22:00:00 3.2 19 Norte 33 Noroeste 0.2 -- -- 94
2020-01-20 21:00:00 2.9 19 Norte 28 Norte 0.2 -- -- 93
2020-01-20 20:00:00 2.8 14 Norte 42 Norte 0 -- -- 97
2020-01-20 19:00:00 3 28 Norte 48 Norte 1.8 -- -- 99
2020-01-20 18:00:00 2.9 27 Norte 47 Norte 0 -- -- 98
2020-01-20 17:00:00 2.9 29 Norte 42 Norte 0 -- -- 98
2020-01-20 16:00:00 2.8 30 Norte 45 Norte 0 -- -- 98
2020-01-20 15:00:00 2.5 26 Noroeste 43 Norte 0 -- -- 98
2020-01-20 14:00:00 2.2 32 Norte 50 Norte 0 -- -- 98
2020-01-20 13:00:00 1.8 36 Norte 53 Norte 0 -- -- 98
2020-01-20 12:00:00 1.1 35 Norte 58 Norte 0.4 -- -- 98
2020-01-20 11:00:00 0.9 40 Norte 64 Norte 1.6 -- -- 98
2020-01-20 10:00:00 0.5 41 Norte 60 Norte 1.2 -- -- 98
2020-01-20 09:00:00 0.2 27 Norte 65 Norte 0.4 -- -- 98
2020-01-20 08:00:00 0.2 43 Norte 60 Norte 0.4 -- -- 98
2020-01-20 07:00:00 0.4 44 Norte 71 Noroeste 0.4 -- -- 97
2020-01-20 06:00:00 0.4 50 Norte 75 Norte 0.2 -- -- 97
2020-01-20 05:00:00 0.7 45 Norte 75 Norte 0.2 -- -- 96
2020-01-20 04:00:00 0.8 44 Norte 77 Norte 1.2 -- -- 96
2020-01-20 03:00:00 1.1 44 Norte 68 Norte 1.6 -- -- 96
2020-01-20 02:00:00 1.7 35 Norte 54 Norte 1 -- -- 94
2020-01-20 01:00:00 2.2 31 Norte 62 Norte 1.4 -- -- 91
2020-01-20 00:00:00 2.4 32 Norte 48 Norte 0.6 -- -- 89
2020-01-19 23:00:00 2.1 19 Noroeste 56 Noroeste 0.8 -- -- 91
2020-01-19 22:00:00 1.8 40 Norte 57 Norte 2.4 -- -- 94
2020-01-19 21:00:00 1.6 27 Norte 56 Norte 2 -- -- 93
2020-01-19 20:00:00 2 37 Norte 62 Norte 2.6 -- -- 93
2020-01-19 19:00:00 2.5 26 Norte 61 Norte 1.6 -- -- 92
2020-01-19 18:00:00 3.2 38 Norte 54 Norte 0 -- -- 86
2020-01-19 17:00:00 4.4 35 Noroeste 52 Noroeste 0 -- -- 83
2020-01-19 16:00:00 5.7 33 Noroeste 64 Norte 0 -- -- 82
2020-01-19 15:00:00 7.6 38 Norte 51 Norte 0 -- -- 70
2020-01-19 14:00:00 8.4 30 Norte 43 Norte 0 -- -- 64
2020-01-19 13:00:00 9.2 27 Norte 40 Norte 0 -- -- 57
2020-01-19 12:00:00 9.4 27 Noroeste 45 Noroeste 0 -- -- 55
2020-01-19 11:00:00 8.4 27 Noroeste 38 Noroeste 0 -- -- 61
2020-01-19 10:00:00 6.5 15 Noroeste 30 Noroeste 0 -- -- 71
2020-01-19 09:00:00 6.4 9 Oeste 29 Noroeste 0 -- -- 70
2020-01-19 08:00:00 6.8 21 Noroeste 49 Oeste 0 -- -- 70
2020-01-19 07:00:00 6.9 22 Noroeste 40 Noroeste 0 -- -- 71
2020-01-19 06:00:00 8.3 17 Noroeste 40 Noroeste 0 -- -- 64
2020-01-19 05:00:00 8.1 8 Noroeste 26 Noroeste 0 -- -- 72
2020-01-19 04:00:00 5.8 6 Oeste 12 Noroeste 0 -- -- 90
2020-01-19 03:00:00 6.6 3 Oeste 9 Norte 0 -- -- 90
2020-01-19 02:00:00 7.6 5 Noroeste 13 Noroeste 0 -- -- 87
2020-01-19 01:00:00 9.5 10 Noroeste 16 Noroeste 0 -- -- 85
2020-01-19 00:00:00 11 3 Oeste 28 Sudoeste 0 -- -- 81
2020-01-18 23:00:00 8.6 4 Noroeste 13 Noroeste 0 -- -- 87
2020-01-18 22:00:00 9.2 0 Calma 19 Oeste 0 -- -- 84
2020-01-18 21:00:00 9.1 9 Sur 28 Sudoeste 0 -- -- 81
2020-01-18 20:00:00 9.6 2 Sudeste 9 Sudoeste 0 -- -- 77
2020-01-18 19:00:00 10.2 3 Sudoeste 15 Sudoeste 0 -- -- 75
2020-01-18 18:00:00 11.3 12 Sudoeste 43 Sudoeste 0 -- -- 68
2020-01-18 17:00:00 12.2 22 Sudoeste 42 Sudoeste 0 -- -- 67
2020-01-18 16:00:00 11.8 21 Sudoeste 37 Oeste 0 -- -- 66
2020-01-18 15:00:00 11 6 Sur 18 Sudoeste 0 -- -- 72
2020-01-18 14:00:00 10.2 11 Sur 18 Sur 0 -- -- 72
2020-01-18 13:00:00 9 0 Calma 14 Sudoeste 0.2 -- -- 81
2020-01-18 12:00:00 7.7 3 Nordeste 6 Sur 0.2 -- -- 87
2020-01-18 11:00:00 7.4 3 Nordeste 18 Norte 0.6 -- -- 82
2020-01-18 10:00:00 8.4 13 Norte 19 Noroeste 0 -- -- 68
2020-01-18 09:00:00 6.4 4 Oeste 10 Norte 0 -- -- 76
2020-01-18 08:00:00 4.4 5 Noroeste 9 Noroeste 0 -- -- 82
2020-01-18 07:00:00 4.3 5 Norte 8 Norte 0 -- -- 83
2020-01-18 06:00:00 3.9 3 Norte 5 Norte 0 -- -- 83
2020-01-18 05:00:00 5.2 0 Calma 12 Norte 0 -- -- 77
2020-01-18 04:00:00 6.5 11 Noroeste 18 Noroeste 0 -- -- 73
2020-01-18 03:00:00 4.8 7 Noroeste 10 Noroeste 0 -- -- 79
2020-01-18 02:00:00 5.7 0 Calma 12 Norte 0 -- -- 73
2020-01-18 01:00:00 7.1 4 Norte 17 Norte 0 -- -- 67
2020-01-18 00:00:00 6.5 5 Oeste 14 Noroeste 0 -- -- 71
2020-01-17 23:00:00 6.5 0 Calma 14 Norte 0 -- -- 70
2020-01-17 22:00:00 6.3 7 Norte 12 Norte 0 -- -- 72
2020-01-17 21:00:00 8.6 6 Oeste 15 Noroeste 0 -- -- 62
2020-01-17 20:00:00 11 5 Oeste 28 Oeste 0 -- -- 53
2020-01-17 19:00:00 13 17 Oeste 28 Oeste 0 -- -- 48
2020-01-17 18:00:00 14.4 14 Sudoeste 27 Sudoeste 0 -- -- 48
2020-01-17 17:00:00 16.1 11 Sudoeste 24 Sudoeste 0 -- -- 46
2020-01-17 16:00:00 16.6 16 Sudoeste 26 Sudoeste 0 -- -- 42
2020-01-17 15:00:00 16.7 13 Sudoeste 26 Sudoeste 0 -- -- 42
2020-01-17 14:00:00 16.4 14 Sudoeste 31 Oeste 0 -- -- 40
2020-01-17 13:00:00 15.4 15 Oeste 28 Sudoeste 0 -- -- 41
2020-01-17 12:00:00 14.5 14 Oeste 23 Oeste 0 -- -- 41
2020-01-17 11:00:00 12.9 3 Oeste 15 Noroeste 0 -- -- 47
2020-01-17 10:00:00 9.4 5 Noroeste 15 Noroeste 0 -- -- 57
2020-01-17 09:00:00 5.2 12 Noroeste 16 Nordeste 0 -- -- 70
2020-01-17 08:00:00 6.6 11 Noroeste 18 Noroeste 0 -- -- 62
2020-01-17 07:00:00 3.2 10 Norte 14 Norte 0 -- -- 73
2020-01-17 06:00:00 3.3 9 Norte 18 Norte 0 -- -- 69
2020-01-17 05:00:00 6.9 12 Noroeste 24 Noroeste 0 -- -- 58
2020-01-17 04:00:00 7.1 9 Noroeste 24 Noroeste 0 -- -- 57
2020-01-17 03:00:00 6.5 8 Noroeste 22 Noroeste 0 -- -- 58
2020-01-17 02:00:00 6.8 15 Noroeste 25 Noroeste 0 -- -- 57
2020-01-17 01:00:00 6.2 13 Noroeste 19 Noroeste 0 -- -- 61
2020-01-17 00:00:00 4.7 6 Noroeste 14 Noroeste 0 -- -- 68
2020-01-16 23:00:00 5.8 4 Noroeste 13 Oeste 0 -- -- 64
2020-01-16 22:00:00 4.5 9 Noroeste 12 Noroeste 0 -- -- 80
2020-01-16 21:00:00 4.5 5 Noroeste 9 Noroeste 0 -- -- 79
2020-01-16 20:00:00 6.5 6 Noroeste 8 Noroeste 0 -- -- 72
2020-01-16 19:00:00 7.4 6 Nordeste 8 Nordeste 0 -- -- 69
2020-01-16 18:00:00 13 3 Sur 15 Sudeste 0 -- -- 50
2020-01-16 17:00:00 15.6 10 Sudeste 19 Sudeste 0 -- -- 41
2020-01-16 16:00:00 16.7 8 Sudeste 18 Sudeste 0 -- -- 37
2020-01-16 15:00:00 17 5 Sur 18 Sudeste 0 -- -- 37
2020-01-16 14:00:00 16.5 11 Sudeste 19 Sudeste 0 -- -- 37
2020-01-16 13:00:00 15.8 4 Sudeste 10 Sudeste 0 -- -- 38
2020-01-16 12:00:00 13.6 3 Sudeste 5 Sur 0 -- -- 44
2020-01-16 11:00:00 9.3 0 Calma 5 Sur 0 -- -- 53
2020-01-16 10:00:00 5.1 3 Sudoeste 6 Sur 0 -- -- 63
2020-01-16 09:00:00 2.1 3 Oeste 13 Noroeste 0 -- -- 72
2020-01-16 08:00:00 0.6 3 Oeste 10 Noroeste 0 -- -- 75
2020-01-16 07:00:00 2 4 Sudoeste 7 Sudoeste 0 -- -- 69
2020-01-16 06:00:00 3.5 3 Oeste 18 Norte 0 -- -- 64
2020-01-16 05:00:00 1.7 3 Oeste 5 Sudoeste 0 -- -- 72
2020-01-16 04:00:00 2.5 0 Calma 14 Norte 0 -- -- 69
2020-01-16 03:00:00 3 9 Norte 14 Norte 0 -- -- 68
2020-01-16 02:00:00 3.7 5 Noroeste 15 Noroeste 0 -- -- 67
2020-01-16 01:00:00 2.6 0 Calma 6 Sudoeste 0 -- -- 74
2020-01-16 00:00:00 3.9 5 Noroeste 10 Noroeste 0 -- -- 70
2020-01-15 23:00:00 5 6 Noroeste 19 Noroeste 0 -- -- 69
2020-01-15 22:00:00 4.7 6 Norte 16 Noroeste 0 -- -- 72
2020-01-15 21:00:00 4.3 7 Noroeste 11 Noroeste 0 -- -- 75
2020-01-15 20:00:00 4.9 6 Noroeste 9 Norte 0 -- -- 71
2020-01-15 19:00:00 7.3 3 Norte 8 Este 0 -- -- 63
2020-01-15 18:00:00 11.8 8 Este 12 Sudeste 0 -- -- 50
2020-01-15 17:00:00 15.4 8 Sudeste 15 Sur 0 -- -- 41
2020-01-15 16:00:00 16.2 8 Sur 15 Sudeste 0 -- -- 40
2020-01-15 15:00:00 15.6 5 Este 13 Sudeste 0 -- -- 41
2020-01-15 14:00:00 14.5 4 Sur 14 Este 0 -- -- 43
2020-01-15 13:00:00 13.6 7 Sur 13 Sur 0 -- -- 46
2020-01-15 12:00:00 11.2 5 Sur 13 Oeste 0 -- -- 56
2020-01-15 11:00:00 8.6 4 Este 8 Este 0 -- -- 61
2020-01-15 10:00:00 4.5 3 Oeste 22 Norte 0 -- -- 75
2020-01-15 09:00:00 3.6 13 Noroeste 23 Noroeste 0 -- -- 78
2020-01-15 08:00:00 2.8 14 Noroeste 22 Norte 0 -- -- 81
2020-01-15 07:00:00 2.7 2 Oeste 12 Noroeste 0 -- -- 79
2020-01-15 06:00:00 1.8 3 Oeste 6 Sudoeste 0 -- -- 80
2020-01-15 05:00:00 3.1 3 Noroeste 9 Noroeste 0 -- -- 78
2020-01-15 04:00:00 3.4 0 Calma 4 Sudoeste 0 -- -- 77
2020-01-15 03:00:00 2.3 0 Calma 6 Noroeste 0 -- -- 79
2020-01-15 02:00:00 3.9 4 Noroeste 20 Norte 0 -- -- 78
2020-01-15 01:00:00 4.9 13 Norte 23 Norte 0 -- -- 73
2020-01-15 00:00:00 5.4 17 Noroeste 23 Noroeste 0 -- -- 73
2020-01-14 23:00:00 3.1 7 Norte 10 Norte 0 -- -- 74
2020-01-14 22:00:00 4.6 5 Norte 19 Noroeste 0 -- -- 66
2020-01-14 21:00:00 6.7 10 Norte 18 Noroeste 0 -- -- 57
2020-01-14 20:00:00 6.8 9 Norte 19 Noroeste 0 -- -- 57
2020-01-14 19:00:00 5.2 5 Norte 9 Norte 0 -- -- 68
2020-01-14 18:00:00 8.3 3 Nordeste 8 Sudeste 0 -- -- 60
2020-01-14 17:00:00 11.9 7 Sudeste 13 Sur 0 -- -- 48
2020-01-14 16:00:00 14.9 5 Sur 12 Sur 0 -- -- 39
2020-01-14 15:00:00 14.2 7 Este 13 Sudeste 0 -- -- 39
2020-01-14 14:00:00 14.1 5 Sur 10 Sur 0 -- -- 39
2020-01-14 13:00:00 12.4 5 Sur 13 Sudeste 0 -- -- 41
2020-01-14 12:00:00 10.8 3 Sur 8 Sur 0 -- -- 45
2020-01-14 11:00:00 8.8 2 Nordeste 6 Sudoeste 0 -- -- 53
2020-01-14 10:00:00 5.1 0 Calma 8 Norte 0 -- -- 65
2020-01-14 09:00:00 1.9 11 Norte 22 Noroeste 0 -- -- 73
2020-01-14 08:00:00 1 12 Norte 20 Noroeste 0 -- -- 75
2020-01-14 07:00:00 2.7 9 Noroeste 25 Noroeste 0 -- -- 72
2020-01-14 06:00:00 3.5 15 Noroeste 22 Noroeste 0 -- -- 69
2020-01-14 05:00:00 3.5 15 Norte 31 Noroeste 0 -- -- 69
2020-01-14 04:00:00 4.6 20 Noroeste 29 Noroeste 0 -- -- 65
2020-01-14 03:00:00 4.8 22 Noroeste 34 Noroeste 0 -- -- 64
2020-01-14 02:00:00 4.5 17 Norte 28 Noroeste 0 -- -- 63
2020-01-14 01:00:00 4.7 13 Noroeste 22 Noroeste 0 -- -- 61
2020-01-14 00:00:00 3.8 4 Oeste 20 Noroeste 0 -- -- 65
2020-01-13 23:00:00 2.9 3 Nordeste 11 Norte 0 -- -- 76
2020-01-13 22:00:00 3.1 8 Norte 14 Norte 0 -- -- 79
2020-01-13 21:00:00 3.7 6 Noroeste 10 Noroeste 0 -- -- 77
2020-01-13 20:00:00 4.5 5 Norte 9 Norte 0 -- -- 84
2020-01-13 19:00:00 5.7 4 Noroeste 6 Noroeste 0 -- -- 77
2020-01-13 18:00:00 10.6 4 Sudeste 10 Sudeste 0 -- -- 63
2020-01-13 17:00:00 12.9 9 Sudeste 13 Sudeste 0 -- -- 52
2020-01-13 16:00:00 14 9 Sur 13 Sudeste 0 -- -- 46
2020-01-13 15:00:00 14.3 7 Sur 14 Sur 0 -- -- 41
2020-01-13 14:00:00 14 8 Sudeste 13 Sudeste 0 -- -- 41
2020-01-13 13:00:00 12.9 6 Sur 11 Sudeste 0 -- -- 41
2020-01-13 12:00:00 10.9 4 Sur 8 Sudeste 0 -- -- 51
2020-01-13 11:00:00 6.3 2 Oeste 8 Sudoeste 0 -- -- 64
2020-01-13 10:00:00 3 0 Calma 4 Nordeste 0 -- -- 75
2020-01-13 09:00:00 -0.9 3 Sudoeste 7 Norte 0 -- -- 82
2020-01-13 08:00:00 -0.9 4 Sudoeste 15 Norte 0 -- -- 79
2020-01-13 07:00:00 -1.9 0 Calma 5 Sudoeste 0 -- -- 80
2020-01-13 06:00:00 -1 4 Norte 8 Norte 0 -- -- 80
2020-01-13 05:00:00 -1.5 0 Calma 3 Sudoeste 0 -- -- 82
2020-01-13 04:00:00 -0.9 2 Sur 3 Oeste 0 -- -- 77
2020-01-13 03:00:00 -0.7 0 Calma 4 Sur 0 -- -- 81
2020-01-13 02:00:00 -0.3 3 Nordeste 4 Norte 0 -- -- 79
2020-01-13 01:00:00 0.1 0 Calma 5 Noroeste 0 -- -- 78
2020-01-13 00:00:00 0.4 4 Noroeste 6 Norte 0 -- -- 78
2020-01-12 23:00:00 1.6 0 Calma 10 Norte 0 -- -- 73
2020-01-12 22:00:00 2.8 8 Norte 17 Norte 0 -- -- 69
2020-01-12 21:00:00 3.1 8 Norte 11 Norte 0 -- -- 70
2020-01-12 20:00:00 3.6 6 Noroeste 8 Norte 0 -- -- 66
2020-01-12 19:00:00 7.5 0 Calma 5 Norte 0 -- -- 53
2020-01-12 18:00:00 10.2 6 Norte 13 Norte 0 -- -- 46
2020-01-12 17:00:00 13.3 10 Nordeste 22 Nordeste 0 -- -- 37
2020-01-12 16:00:00 14.2 14 Nordeste 23 Nordeste 0 -- -- 37
2020-01-12 15:00:00 14.6 10 Nordeste 18 Nordeste 0 -- -- 31
2020-01-12 14:00:00 14.1 4 Norte 9 Nordeste 0 -- -- 37
2020-01-12 13:00:00 12.9 5 Noroeste 11 Noroeste 0 -- -- 42
2020-01-12 12:00:00 11.7 3 Sudoeste 12 Norte 0 -- -- 42
2020-01-12 11:00:00 10.4 4 Sudeste 7 Sudeste 0 -- -- 50
2020-01-12 10:00:00 7.5 2 Sudeste 16 Noroeste 0 -- -- 58
2020-01-12 09:00:00 4.3 15 Noroeste 21 Noroeste 0 -- -- 65
2020-01-12 08:00:00 2.5 2 Noroeste 23 Norte 0 -- -- 71
2020-01-12 07:00:00 3.5 14 Norte 18 Norte 0 -- -- 68
2020-01-12 06:00:00 2.9 5 Noroeste 23 Noroeste 0 -- -- 70
2020-01-12 05:00:00 3.5 9 Noroeste 23 Noroeste 0 -- -- 68
2020-01-12 04:00:00 4.5 12 Noroeste 31 Norte 0 -- -- 65
2020-01-12 03:00:00 3.2 12 Norte 17 Noroeste 0 -- -- 71
2020-01-12 02:00:00 4 14 Noroeste 24 Norte 0 -- -- 69
2020-01-12 01:00:00 1.8 6 Norte 15 Norte 0 -- -- 80
2020-01-12 00:00:00 1.6 0 Calma 10 Noroeste 0 -- -- 77
2020-01-11 23:00:00 1.9 3 Oeste 8 Noroeste 0 -- -- 77
2020-01-11 22:00:00 2.2 6 Norte 12 Noroeste 0 -- -- 77
2020-01-11 21:00:00 2.2 7 Noroeste 17 Norte 0 -- -- 78
2020-01-11 20:00:00 3.7 6 Noroeste 7 Noroeste 0 -- -- 71
2020-01-11 19:00:00 6.1 6 Noroeste 9 Noroeste 0 -- -- 60
2020-01-11 18:00:00 8.6 6 Noroeste 12 Norte 0 -- -- 54
2020-01-11 17:00:00 11.7 6 Norte 15 Norte 0 -- -- 45
2020-01-11 16:00:00 12.1 10 Norte 21 Norte 0 -- -- 45
2020-01-11 15:00:00 12.3 14 Norte 23 Noroeste 0 -- -- 47
2020-01-11 14:00:00 12 14 Norte 24 Norte 0 -- -- 49
2020-01-11 13:00:00 11.5 12 Norte 24 Norte 0 -- -- 52
2020-01-11 12:00:00 10.6 16 Norte 30 Norte 0 -- -- 55
2020-01-11 11:00:00 9.3 19 Norte 28 Norte 0 -- -- 61
2020-01-11 10:00:00 8.3 15 Norte 23 Noroeste 0 -- -- 65
2020-01-11 09:00:00 6.9 10 Norte 16 Noroeste 0 -- -- 71
2020-01-11 08:00:00 5.5 6 Norte 11 Norte 0 -- -- 73
2020-01-11 07:00:00 6.4 8 Norte 16 Norte 0 -- -- 69
2020-01-11 06:00:00 6.3 13 Norte 25 Norte 0 -- -- 72
2020-01-11 05:00:00 6.3 15 Norte 28 Norte 0 -- -- 74
2020-01-11 04:00:00 7.1 21 Norte 31 Norte 0 -- -- 68
2020-01-11 03:00:00 7 17 Noroeste 25 Noroeste 0 -- -- 69
2020-01-11 02:00:00 6.5 16 Noroeste 28 Noroeste 0 -- -- 72
2020-01-11 01:00:00 5.9 14 Noroeste 28 Norte 0 -- -- 75
2020-01-11 00:00:00 6.1 18 Norte 27 Norte 0 -- -- 75
2020-01-10 23:00:00 5.5 15 Noroeste 25 Noroeste 0 -- -- 76
2020-01-10 22:00:00 5.2 15 Noroeste 31 Norte 0 -- -- 75
2020-01-10 21:00:00 6.2 14 Norte 22 Norte 0 -- -- 60
2020-01-10 20:00:00 6.6 9 Noroeste 21 Noroeste 0 -- -- 59
2020-01-10 19:00:00 8.2 13 Noroeste 24 Norte 0 -- -- 55
2020-01-10 18:00:00 9.1 16 Noroeste 36 Norte 0 -- -- 53
2020-01-10 17:00:00 10.6 28 Norte 40 Norte 0 -- -- 48
2020-01-10 16:00:00 12.2 26 Norte 41 Norte 0 -- -- 47
2020-01-10 15:00:00 12.4 28 Norte 42 Nordeste 0 -- -- 52
2020-01-10 14:00:00 12.5 26 Norte 36 Norte 0 -- -- 53
2020-01-10 13:00:00 12.2 24 Norte 37 Norte 0 -- -- 59
2020-01-10 12:00:00 12.2 20 Norte 34 Norte 0 -- -- 57
2020-01-10 11:00:00 10 14 Noroeste 25 Noroeste 0 -- -- 65
2020-01-10 10:00:00 7.2 12 Norte 33 Noroeste 0 -- -- 73
2020-01-10 09:00:00 5.4 18 Noroeste 28 Noroeste 0 -- -- 79
2020-01-10 08:00:00 5.1 17 Noroeste 31 Noroeste 0 -- -- 81
2020-01-10 07:00:00 4.5 5 Este 11 Nordeste 0 -- -- 81
2020-01-10 06:00:00 3.9 0 Calma 5 Este 0 -- -- 82
2020-01-10 05:00:00 4.3 3 Este 21 Noroeste 0 -- -- 81
2020-01-10 04:00:00 6.3 13 Noroeste 23 Noroeste 0 -- -- 75
2020-01-10 03:00:00 5.9 12 Noroeste 17 Noroeste 0 -- -- 78
2020-01-10 02:00:00 6.9 6 Noroeste 13 Noroeste 0 -- -- 74
2020-01-10 01:00:00 7.1 9 Noroeste 22 Noroeste 0 -- -- 76
2020-01-10 00:00:00 4.9 10 Norte 17 Noroeste 0 -- -- 94
2020-01-09 23:00:00 3.1 5 Noroeste 8 Noroeste 0 -- -- 92
2020-01-09 22:00:00 5 2 Nordeste 6 Noroeste 0 -- -- 89
2020-01-09 21:00:00 5.8 4 Noroeste 8 Noroeste 0 -- -- 91
2020-01-09 20:00:00 5.9 6 Noroeste 8 Noroeste 0 -- -- 87
2020-01-09 19:00:00 7.1 3 Nordeste 5 Nordeste 0 -- -- 83
2020-01-09 18:00:00 10.3 7 Sudeste 13 Sudeste 0 -- -- 70
2020-01-09 17:00:00 12.3 10 Sudeste 15 Sudeste 0 -- -- 64
2020-01-09 16:00:00 13.7 8 Sudeste 15 Sur 0 -- -- 60
2020-01-09 15:00:00 14 6 Sur 12 Sudeste 0 -- -- 59
2020-01-09 14:00:00 12.9 5 Sur 12 Sur 0 -- -- 61
2020-01-09 13:00:00 11.4 3 Nordeste 10 Sur 0 -- -- 67
2020-01-09 12:00:00 10.5 4 Sudeste 9 Sudeste 0 -- -- 69
2020-01-09 11:00:00 8.5 2 Sudeste 5 Sudoeste 0 -- -- 76
2020-01-09 10:00:00 6.1 3 Sur 8 Norte 0 -- -- 84
2020-01-09 09:00:00 3.9 0 Calma 8 Noroeste 0 -- -- 92
2020-01-09 08:00:00 2.4 0 Calma 9 Sudeste 0 -- -- 91
2020-01-09 07:00:00 2.9 5 Noroeste 9 Noroeste 0 -- -- 94
2020-01-09 06:00:00 2 2 Oeste 8 Noroeste 0 -- -- 94
2020-01-09 05:00:00 1.3 0 Calma 7 Noroeste 0 -- -- 95
2020-01-09 04:00:00 0.9 2 Sudoeste 6 Noroeste 0 -- -- 93
2020-01-09 03:00:00 2 2 Oeste 12 Norte 0 -- -- 93
2020-01-09 02:00:00 2.7 7 Norte 12 Noroeste 0 -- -- 90
2020-01-09 01:00:00 3.7 6 Noroeste 9 Noroeste 0 -- -- 94
2020-01-09 00:00:00 1.6 7 Norte 8 Norte 0 -- -- 90
2020-01-08 23:00:00 2.4 4 Noroeste 8 Norte 0 -- -- 90
2020-01-08 22:00:00 4 5 Noroeste 14 Noroeste 0 -- -- 85
2020-01-08 21:00:00 4.1 6 Norte 8 Norte 0 -- -- 88
2020-01-08 20:00:00 7.2 7 Sudoeste 12 Sudoeste 0 -- -- 83
2020-01-08 19:00:00 8.1 4 Sur 13 Sudoeste 0 -- -- 75
2020-01-08 18:00:00 10.8 8 Sur 14 Sur 0 -- -- 63
2020-01-08 17:00:00 14.1 11 Sur 18 Sudeste 0 -- -- 51
2020-01-08 16:00:00 14.8 12 Sudeste 19 Sur 0 -- -- 42
2020-01-08 15:00:00 16.6 12 Sur 19 Sudeste 0 -- -- 40
2020-01-08 14:00:00 16.2 14 Sudeste 24 Este 0 -- -- 36
2020-01-08 13:00:00 17.2 12 Sudeste 17 Este 0 -- -- 28
2020-01-08 12:00:00 15.4 4 Sur 7 Sudeste 0 -- -- 41
2020-01-08 11:00:00 11.5 6 Sudoeste 8 Sudoeste 0 -- -- 48
2020-01-08 10:00:00 8.2 0 Calma 6 Sur 0 -- -- 55
2020-01-08 09:00:00 5.3 5 Oeste 18 Norte 0 -- -- 60
2020-01-08 08:00:00 3.8 3 Oeste 14 Noroeste 0 -- -- 65
2020-01-08 07:00:00 3.8 5 Noroeste 16 Norte 0 -- -- 66
2020-01-08 06:00:00 5.3 10 Norte 22 Noroeste 0 -- -- 62
2020-01-08 05:00:00 4.5 8 Noroeste 14 Noroeste 0 -- -- 67
2020-01-08 04:00:00 4.4 5 Noroeste 17 Noroeste 0 -- -- 66
2020-01-08 03:00:00 4.3 0 Calma 8 Noroeste 0 -- -- 67
2020-01-08 02:00:00 3.9 2 Oeste 5 Sudoeste 0 -- -- 70
2020-01-08 01:00:00 4.8 3 Sudoeste 9 Noroeste 0 -- -- 66
2020-01-08 00:00:00 5.6 3 Noroeste 16 Norte 0 -- -- 65
2020-01-07 23:00:00 7 14 Norte 20 Norte 0 -- -- 62
2020-01-07 22:00:00 6.2 7 Noroeste 15 Noroeste 0 -- -- 70
2020-01-07 21:00:00 5.7 2 Noroeste 11 Noroeste 0 -- -- 76
2020-01-07 20:00:00 5.2 7 Noroeste 10 Noroeste 0 -- -- 80
2020-01-07 19:00:00 6.3 5 Noroeste 6 Noroeste 0 -- -- 76
2020-01-07 18:00:00 11.6 2 Este 12 Este 0 -- -- 61
2020-01-07 17:00:00 15.1 7 Sudeste 11 Este 0 -- -- 46
2020-01-07 16:00:00 17.1 6 Sur 10 Sudoeste 0 -- -- 38
2020-01-07 15:00:00 16.8 4 Sudeste 11 Sur 0 -- -- 37
2020-01-07 14:00:00 16 9 Sur 13 Sudeste 0 -- -- 39
2020-01-07 13:00:00 15 5 Sur 10 Sur 0 -- -- 38
2020-01-07 12:00:00 11.9 4 Sudoeste 6 Sur 0 -- -- 47
2020-01-07 11:00:00 8.8 2 Sur 6 Sudoeste 0 -- -- 56
2020-01-07 10:00:00 6.2 2 Noroeste 7 Sudoeste 0 -- -- 56
2020-01-07 09:00:00 2.2 3 Oeste 11 Norte 0 -- -- 68
2020-01-07 08:00:00 1.9 3 Sur 6 Oeste 0 -- -- 66
2020-01-07 07:00:00 1.5 4 Sur 6 Sur 0 -- -- 69
2020-01-07 06:00:00 2.5 2 Oeste 10 Noroeste 0 -- -- 65
2020-01-07 05:00:00 2.2 0 Calma 13 Noroeste 0 -- -- 67
2020-01-07 04:00:00 3.8 4 Noroeste 22 Noroeste 0 -- -- 61
2020-01-07 03:00:00 4.1 8 Norte 20 Noroeste 0 -- -- 61
2020-01-07 02:00:00 3 6 Noroeste 17 Noroeste 0 -- -- 69
2020-01-07 01:00:00 4.6 6 Noroeste 15 Norte 0 -- -- 64
2020-01-07 00:00:00 2.9 2 Oeste 5 Sur 0 -- -- 78
2020-01-06 23:00:00 3.9 3 Noroeste 15 Norte 0 -- -- 76
2020-01-06 22:00:00 6.1 12 Norte 18 Norte 0 -- -- 67
2020-01-06 21:00:00 4 3 Noroeste 17 Norte 0 -- -- 76
2020-01-06 20:00:00 4.1 9 Noroeste 13 Noroeste 0 -- -- 84
2020-01-06 19:00:00 5.3 6 Noroeste 8 Noroeste 0 -- -- 77
2020-01-06 18:00:00 10.8 3 Este 12 Sudeste 0 -- -- 59
2020-01-06 17:00:00 13.5 9 Sudeste 14 Sudeste 0 -- -- 38
2020-01-06 16:00:00 15.5 9 Sudeste 16 Sudeste 0 -- -- 36
2020-01-06 15:00:00 16.1 5 Sur 17 Sur 0 -- -- 29
2020-01-06 14:00:00 15.6 5 Sur 11 Sur 0 -- -- 32
2020-01-06 13:00:00 14.5 5 Sur 9 Sudeste 0 -- -- 33
2020-01-06 12:00:00 11.5 4 Este 6 Este 0 -- -- 46
2020-01-06 11:00:00 7.7 3 Sur 4 Sur 0 -- -- 58
2020-01-06 10:00:00 3.4 3 Sudoeste 4 Sudoeste 0 -- -- 72